createdAt,value
2018-05-17T00:00:46.495Z,85.12
2018-05-17T00:01:46.426Z,85.60
2018-05-17T00:02:46.409Z,85.78
2018-05-17T00:03:46.422Z,85.69
2018-05-17T00:04:46.446Z,85.31
2018-05-17T00:05:46.376Z,85.88
2018-05-17T00:06:46.344Z,85.88
2018-05-17T00:07:46.324Z,85.60
2018-05-17T00:08:46.330Z,85.78
2018-05-17T00:09:46.301Z,85.41
2018-05-17T00:10:47.035Z,85.60
2018-05-17T00:11:46.281Z,85.31
2018-05-17T00:12:46.275Z,85.69
2018-05-17T00:13:46.228Z,85.21
2018-05-17T00:14:46.212Z,85.60
2018-05-17T00:15:46.202Z,85.41
2018-05-17T00:16:46.182Z,85.97
2018-05-17T00:17:46.154Z,85.69
2018-05-17T00:18:46.138Z,86.07
2018-05-17T00:19:46.230Z,86.16
2018-05-17T00:20:46.110Z,86.16
2018-05-17T00:21:46.095Z,85.97
2018-05-17T00:22:46.075Z,86.74
2018-05-17T00:23:46.074Z,86.26
2018-05-17T00:24:46.039Z,86.74
2018-05-17T00:25:46.026Z,86.74
2018-05-17T00:26:46.021Z,86.65
2018-05-17T00:27:46.008Z,87.21
2018-05-17T00:28:45.996Z,87.40
2018-05-17T00:29:45.976Z,87.40
2018-05-17T00:30:45.941Z,87.21
2018-05-17T00:31:45.954Z,87.02
2018-05-17T00:32:45.922Z,86.83
2018-05-17T00:33:45.918Z,87.21
2018-05-17T00:34:45.901Z,87.21
2018-05-17T00:35:45.923Z,87.12
2018-05-17T00:36:45.836Z,86.83
2018-05-17T00:37:45.816Z,87.12
2018-05-17T00:38:45.830Z,87.31
2018-05-17T00:39:45.791Z,87.02
2018-05-17T00:40:45.780Z,87.02
2018-05-17T00:41:45.748Z,87.21
2018-05-17T00:42:45.742Z,87.69
2018-05-17T00:43:45.722Z,87.69
2018-05-17T00:44:45.703Z,87.69
2018-05-17T00:45:45.689Z,88.36
2018-05-17T00:46:45.674Z,87.69
2018-05-17T00:47:45.654Z,87.69
2018-05-17T00:48:45.677Z,87.60
2018-05-17T00:49:45.615Z,87.40
2018-05-17T00:50:45.604Z,87.79
2018-05-17T00:51:45.584Z,87.88
2018-05-17T00:52:45.575Z,88.07
2018-05-17T00:53:45.549Z,87.98
2018-05-17T00:54:45.531Z,88.07
2018-05-17T00:55:45.514Z,87.98
2018-05-17T00:56:45.504Z,87.79
2018-05-17T00:57:45.484Z,87.79
2018-05-17T00:58:45.466Z,87.88
2018-05-17T00:59:45.450Z,87.98
2018-05-17T01:00:45.437Z,87.31
2018-05-17T01:01:45.439Z,87.69
2018-05-17T01:02:45.400Z,87.69
2018-05-17T01:03:45.383Z,87.02
2018-05-17T01:04:45.363Z,87.21
2018-05-17T01:05:45.357Z,87.69
2018-05-17T01:06:45.331Z,88.45
2018-05-17T01:07:45.334Z,88.36
2018-05-17T01:08:45.299Z,88.26
2018-05-17T01:09:45.281Z,88.17
2018-05-17T01:10:45.265Z,88.17
2018-05-17T01:11:45.260Z,88.55
2018-05-17T01:12:45.232Z,88.17
2018-05-17T01:13:45.217Z,88.07
2018-05-17T01:14:45.258Z,88.36
2018-05-17T01:15:45.183Z,88.45
2018-05-17T01:16:45.157Z,89.12
2018-05-17T01:17:45.148Z,89.50
2018-05-17T01:18:45.129Z,89.50
2018-05-17T01:19:45.111Z,89.50
2018-05-17T01:20:45.109Z,89.60
2018-05-17T01:21:45.086Z,89.40
2018-05-17T01:22:45.061Z,88.93
2018-05-17T01:23:45.045Z,89.03
2018-05-17T01:24:45.030Z,88.84
2018-05-17T01:25:45.053Z,89.40
2018-05-17T01:26:44.993Z,89.40
2018-05-17T01:27:44.980Z,89.60
2018-05-17T01:28:44.953Z,89.60
2018-05-17T01:29:44.939Z,88.93
2018-05-17T01:30:44.926Z,89.03
2018-05-17T01:31:44.919Z,89.31
2018-05-17T01:32:44.914Z,89.60
2018-05-17T01:33:44.875Z,89.79
2018-05-17T01:34:44.870Z,89.60
2018-05-17T01:35:44.849Z,89.31
2018-05-17T01:36:44.829Z,89.31
2018-05-17T01:37:44.808Z,89.31
2018-05-17T01:38:44.799Z,89.50
2018-05-17T01:39:44.779Z,89.31
2018-05-17T01:40:44.761Z,89.22
2018-05-17T01:41:44.740Z,89.40
2018-05-17T01:42:44.723Z,89.50
2018-05-17T01:43:44.707Z,89.60
2018-05-17T01:44:44.690Z,89.31
2018-05-17T01:45:44.678Z,89.40
2018-05-17T01:46:44.652Z,89.31
2018-05-17T01:47:44.647Z,89.03
2018-05-17T01:48:44.619Z,88.45
2018-05-17T01:49:44.613Z,89.31
2018-05-17T01:50:44.597Z,89.31
2018-05-17T01:51:44.576Z,88.45
2018-05-17T01:52:44.552Z,88.74
2018-05-17T01:53:44.562Z,88.36
2018-05-17T01:54:44.531Z,89.50
2018-05-17T01:55:44.556Z,88.36
2018-05-17T01:56:44.498Z,88.74
2018-05-17T01:57:44.474Z,89.03
2018-05-17T01:58:44.456Z,88.93
2018-05-17T01:59:44.445Z,88.84
2018-05-17T02:00:44.420Z,88.74
2018-05-17T02:01:44.402Z,88.84
2018-05-17T02:02:44.395Z,88.64
2018-05-17T02:03:44.409Z,88.55
2018-05-17T02:04:44.358Z,88.17
2018-05-17T02:05:44.348Z,89.03
2018-05-17T02:06:44.328Z,89.50
2018-05-17T02:07:44.307Z,89.40
2018-05-17T02:08:44.290Z,89.12
2018-05-17T02:09:44.264Z,89.60
2018-05-17T02:10:44.262Z,89.40
2018-05-17T02:11:44.236Z,89.60
2018-05-17T02:12:44.221Z,88.74
2018-05-17T02:13:44.218Z,88.55
2018-05-17T02:14:44.195Z,89.03
2018-05-17T02:15:44.179Z,89.22
2018-05-17T02:16:44.164Z,89.60
2018-05-17T02:17:44.145Z,89.98
2018-05-17T02:18:44.170Z,88.84
2018-05-17T02:19:44.154Z,88.60
2018-05-17T02:20:44.089Z,89.60
2018-05-17T02:21:44.180Z,89.03
2018-05-17T02:22:44.058Z,88.93
2018-05-17T02:23:44.038Z,88.36
2018-05-17T02:24:44.018Z,88.45
2018-05-17T02:25:44.003Z,88.93
2018-05-17T02:26:43.991Z,88.74
2018-05-17T02:27:43.963Z,88.26
2018-05-17T02:28:43.950Z,88.45
2018-05-17T02:29:43.945Z,88.93
2018-05-17T02:30:43.926Z,88.36
2018-05-17T02:31:43.903Z,87.98
2018-05-17T02:32:43.884Z,88.45
2018-05-17T02:33:43.875Z,88.36
2018-05-17T02:34:43.856Z,88.36
2018-05-17T02:35:43.864Z,88.74
2018-05-17T02:36:43.817Z,88.36
2018-05-17T02:37:43.796Z,88.17
2018-05-17T02:38:43.784Z,88.26
2018-05-17T02:39:43.770Z,88.55
2018-05-17T02:40:43.757Z,88.26
2018-05-17T02:41:43.732Z,87.88
2018-05-17T02:42:43.719Z,87.79
2018-05-17T02:43:43.711Z,87.21
2018-05-17T02:44:43.693Z,87.31
2018-05-17T02:45:43.664Z,87.12
2018-05-17T02:46:43.655Z,87.31
2018-05-17T02:47:43.653Z,87.21
2018-05-17T02:48:43.616Z,86.93
2018-05-17T02:49:43.603Z,86.93
2018-05-17T02:50:43.582Z,87.21
2018-05-17T02:51:43.568Z,87.02
2018-05-17T02:52:43.548Z,87.31
2018-05-17T02:53:43.533Z,86.55
2018-05-17T02:54:43.516Z,86.83
2018-05-17T02:55:43.502Z,86.07
2018-05-17T02:56:43.489Z,85.50
2018-05-17T02:57:43.465Z,85.60
2018-05-17T02:58:43.449Z,85.50
2018-05-17T02:59:43.429Z,85.78
2018-05-17T03:00:43.415Z,86.07
2018-05-17T03:01:43.398Z,85.50
2018-05-17T03:02:43.384Z,85.60
2018-05-17T03:03:43.363Z,85.78
2018-05-17T03:04:43.355Z,85.60
2018-05-17T03:05:43.344Z,85.55
2018-05-17T03:06:43.314Z,85.36
2018-05-17T03:07:43.292Z,84.79
2018-05-17T03:08:43.289Z,85.08
2018-05-17T03:09:43.260Z,85.36
2018-05-17T03:10:43.248Z,84.98
2018-05-17T03:11:43.233Z,84.79
2018-05-17T03:12:43.216Z,84.69
2018-05-17T03:13:43.202Z,84.31
2018-05-17T03:14:43.188Z,84.41
2018-05-17T03:15:43.162Z,84.31
2018-05-17T03:16:43.139Z,83.93
2018-05-17T03:17:43.129Z,84.92
2018-05-17T03:18:43.105Z,84.26
2018-05-17T03:19:43.094Z,84.31
2018-05-17T03:20:43.083Z,84.50
2018-05-17T03:21:43.055Z,85.08
2018-05-17T03:22:43.039Z,84.98
2018-05-17T03:23:43.025Z,84.60
2018-05-17T03:24:43.007Z,84.79
2018-05-17T03:25:42.990Z,84.41
2018-05-17T03:26:42.982Z,84.60
2018-05-17T03:27:42.957Z,84.22
2018-05-17T03:28:42.937Z,83.45
2018-05-17T03:29:42.930Z,84.98
2018-05-17T03:30:42.916Z,84.79
2018-05-17T03:31:42.892Z,84.12
2018-05-17T03:32:42.871Z,84.69
2018-05-17T03:33:42.857Z,84.22
2018-05-17T03:34:42.834Z,84.31
2018-05-17T03:35:42.834Z,84.31
2018-05-17T03:36:42.805Z,84.41
2018-05-17T03:37:42.799Z,83.93
2018-05-17T03:38:42.779Z,83.93
2018-05-17T03:39:42.752Z,83.74
2018-05-17T03:40:42.736Z,84.03
2018-05-17T03:41:42.723Z,84.31
2018-05-17T03:42:42.704Z,84.22
2018-05-17T03:43:42.686Z,84.12
2018-05-17T03:44:42.668Z,84.50
2018-05-17T03:45:42.657Z,84.50
2018-05-17T03:46:42.631Z,84.50
2018-05-17T03:47:42.624Z,84.69
2018-05-17T03:48:42.599Z,83.74
2018-05-17T03:49:42.654Z,83.93
2018-05-17T03:50:42.563Z,84.03
2018-05-17T03:51:42.539Z,83.93
2018-05-17T03:52:42.546Z,84.31
2018-05-17T03:53:42.511Z,84.60
2018-05-17T03:54:42.496Z,83.65
2018-05-17T03:55:42.482Z,84.41
2018-05-17T03:56:42.473Z,83.93
2018-05-17T03:57:42.452Z,84.41
2018-05-17T03:58:42.430Z,83.74
2018-05-17T03:59:42.422Z,84.22
2018-05-17T04:00:42.398Z,84.03
2018-05-17T04:01:42.379Z,84.92
2018-05-17T04:02:42.371Z,84.50
2018-05-17T04:03:42.338Z,84.55
2018-05-17T04:04:42.328Z,84.64
2018-05-17T04:05:42.339Z,84.16
2018-05-17T04:06:42.315Z,84.26
2018-05-17T04:07:42.275Z,84.64
2018-05-17T04:08:42.257Z,83.93
2018-05-17T04:09:42.318Z,84.88
2018-05-17T04:10:42.221Z,84.88
2018-05-17T04:11:42.218Z,85.17
2018-05-17T04:12:42.185Z,85.21
2018-05-17T04:13:42.181Z,85.74
2018-05-17T04:14:42.163Z,85.64
2018-05-17T04:15:42.143Z,85.55
2018-05-17T04:16:42.119Z,85.27
2018-05-17T04:17:42.110Z,85.55
2018-05-17T04:18:42.087Z,85.55
2018-05-17T04:19:42.076Z,85.64
2018-05-17T04:20:42.047Z,85.27
2018-05-17T04:21:42.033Z,84.88
2018-05-17T04:22:42.020Z,84.31
2018-05-17T04:23:42.011Z,84.31
2018-05-17T04:24:41.986Z,84.88
2018-05-17T04:25:41.972Z,84.60
2018-05-17T04:26:41.944Z,84.79
2018-05-17T04:27:41.931Z,84.12
2018-05-17T04:28:41.931Z,83.93
2018-05-17T04:29:41.899Z,83.36
2018-05-17T04:30:41.878Z,84.50
2018-05-17T04:31:41.876Z,84.79
2018-05-17T04:32:41.855Z,85.17
2018-05-17T04:33:41.850Z,85.55
2018-05-17T04:34:41.883Z,85.27
2018-05-17T04:35:41.806Z,85.55
2018-05-17T04:36:41.786Z,85.55
2018-05-17T04:37:41.758Z,85.64
2018-05-17T04:38:41.763Z,85.50
2018-05-17T04:39:41.746Z,85.50
2018-05-17T04:40:41.710Z,85.50
2018-05-17T04:41:41.697Z,85.41
2018-05-17T04:42:41.707Z,85.41
2018-05-17T04:43:41.666Z,84.92
2018-05-17T04:44:41.656Z,84.55
2018-05-17T04:45:41.627Z,84.36
2018-05-17T04:46:41.628Z,84.92
2018-05-17T04:47:41.613Z,84.92
2018-05-17T04:48:41.580Z,84.64
2018-05-17T04:49:41.577Z,84.83
2018-05-17T04:50:41.594Z,85.41
2018-05-17T04:51:41.534Z,84.55
2018-05-17T04:52:41.514Z,84.16
2018-05-17T04:53:41.491Z,84.55
2018-05-17T04:54:41.545Z,84.83
2018-05-17T04:55:41.455Z,84.92
2018-05-17T04:56:41.462Z,84.64
2018-05-17T04:57:41.435Z,83.12
2018-05-17T04:58:41.405Z,83.12
2018-05-17T04:59:41.405Z,83.40
2018-05-17T05:00:41.414Z,83.44
2018-05-17T05:01:41.386Z,82.68
2018-05-17T05:02:41.419Z,82.92
2018-05-17T05:03:41.358Z,82.49
2018-05-17T05:04:41.306Z,82.87
2018-05-17T05:05:41.298Z,82.49
2018-05-17T05:06:41.275Z,82.20
2018-05-17T05:07:41.252Z,81.92
2018-05-17T05:08:41.241Z,82.45
2018-05-17T05:09:41.238Z,83.02
2018-05-17T05:10:41.224Z,82.92
2018-05-17T05:11:41.190Z,82.49
2018-05-17T05:12:41.190Z,82.59
2018-05-17T05:13:41.175Z,81.82
2018-05-17T05:14:41.151Z,81.35
2018-05-17T05:15:41.131Z,80.96
2018-05-17T05:16:41.119Z,81.06
2018-05-17T05:17:41.084Z,81.06
2018-05-17T05:18:41.089Z,81.06
2018-05-17T05:19:41.082Z,80.49
2018-05-17T05:20:41.067Z,79.91
2018-05-17T05:21:41.032Z,80.39
2018-05-17T05:22:41.046Z,80.30
2018-05-17T05:23:41.004Z,80.58
2018-05-17T05:24:41.005Z,79.82
2018-05-17T05:25:40.969Z,79.63
2018-05-17T05:26:40.948Z,79.72
2018-05-17T05:27:40.928Z,79.72
2018-05-17T05:28:40.938Z,79.15
2018-05-17T05:29:40.892Z,79.53
2018-05-17T05:30:40.878Z,79.63
2018-05-17T05:31:40.909Z,78.77
2018-05-17T05:32:40.860Z,78.67
2018-05-17T05:33:40.824Z,78.10
2018-05-17T05:34:40.831Z,77.91
2018-05-17T05:35:40.850Z,77.53
2018-05-17T05:36:40.788Z,77.25
2018-05-17T05:37:40.814Z,77.72
2018-05-17T05:38:40.767Z,78.10
2018-05-17T05:39:40.725Z,78.49
2018-05-17T05:40:40.750Z,78.01
2018-05-17T05:41:40.722Z,77.53
2018-05-17T05:42:40.686Z,77.25
2018-05-17T05:43:40.665Z,77.62
2018-05-17T05:44:40.689Z,77.72
2018-05-17T05:45:40.642Z,78.01
2018-05-17T05:46:40.630Z,77.34
2018-05-17T05:47:40.614Z,77.62
2018-05-17T05:48:40.581Z,77.25
2018-05-17T05:49:40.582Z,77.06
2018-05-17T05:50:40.559Z,76.96
2018-05-17T05:51:40.546Z,77.06
2018-05-17T05:52:40.531Z,77.25
2018-05-17T05:53:40.509Z,76.86
2018-05-17T05:54:40.500Z,76.77
2018-05-17T05:55:40.484Z,77.62
2018-05-17T05:56:40.472Z,76.77
2018-05-17T05:57:40.470Z,77.25
2018-05-17T05:58:40.456Z,77.06
2018-05-17T05:59:40.440Z,77.15
2018-05-17T06:00:40.406Z,76.39
2018-05-17T06:01:40.400Z,76.67
2018-05-17T06:02:40.367Z,76.48
2018-05-17T06:03:40.347Z,76.96
2018-05-17T06:04:40.344Z,77.25
2018-05-17T06:05:40.311Z,76.90
2018-05-17T06:06:40.321Z,76.81
2018-05-17T06:07:40.290Z,76.57
2018-05-17T06:08:40.270Z,77.34
2018-05-17T06:09:40.263Z,78.20
2018-05-17T06:10:40.260Z,78.86
2018-05-17T06:11:40.245Z,78.49
2018-05-17T06:12:40.200Z,78.39
2018-05-17T06:13:40.201Z,77.72
2018-05-17T06:14:40.179Z,77.67
2018-05-17T06:15:40.158Z,77.00
2018-05-17T06:16:40.160Z,76.86
2018-05-17T06:17:40.126Z,76.81
2018-05-17T06:18:40.106Z,76.90
2018-05-17T06:19:40.112Z,76.81
2018-05-17T06:20:40.072Z,76.14
2018-05-17T06:21:40.063Z,75.85
2018-05-17T06:22:40.034Z,76.20
2018-05-17T06:23:40.032Z,76.29
2018-05-17T06:24:40.036Z,76.48
2018-05-17T06:25:39.994Z,76.23
2018-05-17T06:26:39.978Z,75.57
2018-05-17T06:27:39.995Z,75.28
2018-05-17T06:28:39.952Z,75.09
2018-05-17T06:29:39.943Z,75.09
2018-05-17T06:30:39.943Z,75.95
2018-05-17T06:31:39.923Z,75.57
2018-05-17T06:32:39.886Z,75.28
2018-05-17T06:33:39.864Z,75.18
2018-05-17T06:34:39.862Z,74.13
2018-05-17T06:35:39.850Z,74.04
2018-05-17T06:36:39.856Z,73.69
2018-05-17T06:37:39.933Z,72.80
2018-05-17T06:38:39.856Z,73.66
2018-05-17T06:39:39.810Z,73.47
2018-05-17T06:40:39.774Z,73.85
2018-05-17T06:41:39.758Z,74.42
2018-05-17T06:42:39.741Z,74.19
2018-05-17T06:43:39.701Z,75.24
2018-05-17T06:44:39.701Z,75.28
2018-05-17T06:45:39.706Z,74.13
2018-05-17T06:46:39.674Z,75.15
2018-05-17T06:47:39.649Z,74.99
2018-05-17T06:48:39.638Z,74.61
2018-05-17T06:49:39.670Z,74.32
2018-05-17T06:50:39.629Z,74.32
2018-05-17T06:51:39.576Z,74.71
2018-05-17T06:52:39.595Z,74.13
2018-05-17T06:53:39.575Z,73.85
2018-05-17T06:54:39.533Z,73.60
2018-05-17T06:55:39.564Z,73.37
2018-05-17T06:56:39.533Z,73.60
2018-05-17T06:57:39.518Z,72.74
2018-05-17T06:58:39.487Z,72.74
2018-05-17T06:59:39.485Z,72.32
2018-05-17T07:00:39.551Z,73.08
2018-05-17T07:01:39.457Z,73.37
2018-05-17T07:02:39.452Z,73.47
2018-05-17T07:03:39.408Z,72.89
2018-05-17T07:04:39.394Z,72.99
2018-05-17T07:05:39.398Z,72.45
2018-05-17T07:06:39.375Z,71.98
2018-05-17T07:07:39.345Z,72.23
2018-05-17T07:08:39.317Z,71.94
2018-05-17T07:09:39.383Z,72.23
2018-05-17T07:10:39.328Z,72.26
2018-05-17T07:11:39.302Z,71.78
2018-05-17T07:12:39.282Z,71.50
2018-05-17T07:13:39.250Z,71.41
2018-05-17T07:14:39.226Z,70.54
2018-05-17T07:15:39.228Z,69.91
2018-05-17T07:16:39.208Z,70.01
2018-05-17T07:17:39.183Z,69.53
2018-05-17T07:18:39.473Z,69.34
2018-05-17T07:19:39.169Z,69.62
2018-05-17T07:20:39.162Z,70.67
2018-05-17T07:21:39.127Z,70.10
2018-05-17T07:22:39.104Z,69.34
2018-05-17T07:23:39.086Z,68.86
2018-05-17T07:24:39.072Z,68.67
2018-05-17T07:25:39.078Z,68.57
2018-05-17T07:26:39.093Z,68.13
2018-05-17T07:27:39.045Z,67.84
2018-05-17T07:28:39.025Z,67.05
2018-05-17T07:29:39.025Z,67.62
2018-05-17T07:30:39.141Z,67.52
2018-05-17T07:31:38.987Z,68.19
2018-05-17T07:32:38.969Z,67.71
2018-05-17T07:33:38.960Z,68.10
2018-05-17T07:34:38.942Z,68.00
2018-05-17T07:35:38.939Z,68.29
2018-05-17T07:36:38.899Z,68.48
2018-05-17T07:37:38.926Z,67.81
2018-05-17T07:38:38.887Z,68.10
2018-05-17T07:39:38.856Z,67.52
2018-05-17T07:40:38.921Z,67.52
2018-05-17T07:41:38.864Z,67.71
2018-05-17T07:42:38.853Z,67.84
2018-05-17T07:43:38.825Z,67.27
2018-05-17T07:44:38.785Z,67.08
2018-05-17T07:45:38.792Z,65.48
2018-05-17T07:46:38.824Z,64.34
2018-05-17T07:47:38.749Z,64.43
2018-05-17T07:48:38.725Z,64.18
2018-05-17T07:49:38.726Z,63.60
2018-05-17T07:50:38.737Z,62.84
2018-05-17T07:51:38.728Z,64.15
2018-05-17T07:52:38.743Z,65.11
2018-05-17T07:53:38.665Z,64.25
2018-05-17T07:54:38.721Z,64.15
2018-05-17T07:55:38.731Z,64.40
2018-05-17T07:56:38.653Z,65.64
2018-05-17T07:57:38.603Z,66.22
2018-05-17T07:58:38.613Z,66.31
2018-05-17T07:59:38.614Z,66.31
2018-05-17T08:00:38.577Z,66.35
2018-05-17T08:01:38.600Z,65.39
2018-05-17T08:02:38.537Z,65.20
2018-05-17T08:03:38.547Z,64.75
2018-05-17T08:04:38.682Z,64.18
2018-05-17T08:05:38.505Z,63.86
2018-05-17T08:06:38.487Z,64.28
2018-05-17T08:07:38.487Z,64.15
2018-05-17T08:08:38.479Z,64.62
2018-05-17T08:09:38.451Z,64.53
2018-05-17T08:10:38.472Z,64.82
2018-05-17T08:11:38.456Z,65.20
2018-05-17T08:12:38.411Z,65.48
2018-05-17T08:13:38.469Z,65.30
2018-05-17T08:14:38.403Z,64.43
2018-05-17T08:15:38.384Z,63.13
2018-05-17T08:16:38.379Z,62.74
2018-05-17T08:17:38.392Z,61.41
2018-05-17T08:18:38.409Z,62.17
2018-05-17T08:19:38.398Z,61.69
2018-05-17T08:21:38.353Z,61.51
2018-05-17T08:22:38.354Z,60.83
2018-05-17T08:23:38.327Z,61.02
2018-05-17T08:24:38.327Z,61.98
2018-05-17T08:25:38.316Z,61.79
2018-05-17T08:26:38.351Z,62.62
2018-05-17T08:27:38.278Z,63.19
2018-05-17T08:28:38.204Z,62.62
2018-05-17T08:29:38.254Z,62.43
2018-05-17T08:30:38.178Z,62.14
2018-05-17T08:31:38.202Z,62.71
2018-05-17T08:32:38.181Z,62.52
2018-05-17T08:33:38.134Z,62.14
2018-05-17T08:34:38.142Z,62.33
2018-05-17T08:35:38.149Z,62.43
2018-05-17T08:36:38.335Z,62.43
2018-05-17T08:37:38.082Z,62.24
2018-05-17T08:38:38.071Z,62.33
2018-05-17T08:39:38.059Z,62.90
2018-05-17T08:40:38.067Z,63.29
2018-05-17T08:41:38.018Z,63.10
2018-05-17T08:42:38.099Z,63.00
2018-05-17T08:43:38.055Z,63.10
2018-05-17T08:44:38.036Z,63.10
2018-05-17T08:45:37.987Z,62.90
2018-05-17T08:46:37.985Z,63.29
2018-05-17T08:47:38.021Z,64.22
2018-05-17T08:48:37.982Z,65.64
2018-05-17T08:49:37.930Z,65.55
2018-05-17T08:50:37.916Z,65.11
2018-05-17T08:51:37.897Z,65.30
2018-05-17T08:52:37.880Z,64.34
2018-05-17T08:53:37.874Z,64.69
2018-05-17T08:54:37.875Z,64.59
2018-05-17T08:55:37.864Z,64.50
2018-05-17T08:56:37.833Z,64.34
2018-05-17T08:57:37.838Z,63.57
2018-05-17T08:58:37.816Z,62.62
2018-05-17T08:59:37.786Z,61.95
2018-05-17T09:00:37.795Z,62.14
2018-05-17T09:01:37.764Z,61.85
2018-05-17T09:02:37.748Z,62.04
2018-05-17T09:03:37.745Z,62.14
2018-05-17T09:04:37.761Z,63.29
2018-05-17T09:05:37.716Z,62.90
2018-05-17T09:06:37.737Z,63.19
2018-05-17T09:07:37.667Z,62.87
2018-05-17T09:08:37.681Z,63.83
2018-05-17T09:09:37.657Z,64.59
2018-05-17T09:10:37.624Z,64.88
2018-05-17T09:11:37.627Z,64.78
2018-05-17T09:12:37.703Z,64.98
2018-05-17T09:13:37.707Z,65.36
2018-05-17T09:14:37.682Z,65.17
2018-05-17T09:15:37.594Z,65.36
2018-05-17T09:16:37.572Z,65.36
2018-05-17T09:17:37.524Z,65.45
2018-05-17T09:18:37.646Z,65.55
2018-05-17T09:19:37.487Z,65.39
2018-05-17T09:20:37.572Z,64.82
2018-05-17T09:21:37.470Z,65.17
2018-05-17T09:22:37.450Z,65.11
2018-05-17T09:23:37.437Z,65.30
2018-05-17T09:24:37.458Z,65.01
2018-05-17T09:25:37.459Z,64.72
2018-05-17T09:26:37.404Z,64.72
2018-05-17T09:27:37.384Z,63.70
2018-05-17T09:28:37.390Z,63.32
2018-05-17T09:29:37.376Z,63.03
2018-05-17T09:30:37.384Z,63.23
2018-05-17T09:31:37.335Z,62.46
2018-05-17T09:32:37.301Z,63.23
2018-05-17T09:33:37.309Z,62.01
2018-05-17T09:34:37.301Z,61.54
2018-05-17T09:35:37.459Z,61.82
2018-05-17T09:36:37.281Z,61.54
2018-05-17T09:37:37.270Z,62.20
2018-05-17T09:38:37.219Z,61.44
2018-05-17T09:39:37.223Z,61.85
2018-05-17T09:40:37.222Z,60.93
2018-05-17T09:41:37.259Z,59.77
2018-05-17T09:42:37.161Z,59.39
2018-05-17T09:43:37.148Z,59.36
2018-05-17T09:44:37.229Z,59.75
2018-05-17T09:45:37.141Z,60.00
2018-05-17T09:46:37.151Z,60.58
2018-05-17T09:47:37.119Z,60.19
2018-05-17T09:48:38.666Z,60.86
2018-05-17T09:49:37.948Z,60.51
2018-05-17T09:50:37.902Z,59.94
2018-05-17T09:51:37.302Z,60.00
2018-05-17T09:52:37.033Z,61.60
2018-05-17T09:53:37.020Z,62.27
2018-05-17T09:54:37.018Z,62.65
2018-05-17T09:55:37.034Z,60.19
2018-05-17T09:56:37.105Z,59.23
2018-05-17T09:57:37.022Z,59.43
2018-05-17T09:58:36.966Z,58.56
2018-05-17T09:59:36.978Z,58.44
2018-05-17T10:00:36.970Z,59.30
2018-05-17T10:01:36.940Z,58.63
2018-05-17T10:02:36.968Z,58.44
2018-05-17T10:03:36.904Z,59.01
2018-05-17T10:04:36.866Z,59.01
2018-05-17T10:05:36.869Z,59.88
2018-05-17T10:06:36.884Z,59.81
2018-05-17T10:07:36.833Z,59.81
2018-05-17T10:08:36.845Z,59.62
2018-05-17T10:09:36.793Z,59.23
2018-05-17T10:10:36.801Z,59.14
2018-05-17T10:11:36.806Z,59.91
2018-05-17T10:12:36.750Z,59.81
2018-05-17T10:13:36.759Z,59.91
2018-05-17T10:14:36.751Z,60.10
2018-05-17T10:15:36.776Z,59.52
2018-05-17T10:16:36.685Z,59.45
2018-05-17T10:17:36.683Z,59.75
2018-05-17T10:18:36.679Z,60.00
2018-05-17T10:19:36.661Z,60.55
2018-05-17T10:20:36.658Z,61.44
2018-05-17T10:21:36.629Z,61.57
2018-05-17T10:22:36.600Z,61.37
2018-05-17T10:23:36.606Z,60.73
2018-05-17T10:24:36.589Z,59.77
2018-05-17T10:25:36.559Z,59.20
2018-05-17T10:26:36.565Z,59.42
2018-05-17T10:27:36.549Z,59.01
2018-05-17T10:28:36.543Z,58.12
2018-05-17T10:29:36.534Z,59.17
2018-05-17T10:30:36.489Z,58.40
2018-05-17T10:31:36.473Z,58.44
2018-05-17T10:32:36.485Z,57.16
2018-05-17T10:33:36.459Z,58.02
2018-05-17T10:34:36.483Z,58.22
2018-05-17T10:35:36.422Z,58.12
2018-05-17T10:36:36.404Z,58.69
2018-05-17T10:37:36.395Z,58.31
2018-05-17T10:38:36.390Z,58.98
2018-05-17T10:39:36.385Z,58.31
2018-05-17T10:40:36.353Z,58.31
2018-05-17T10:41:36.369Z,58.50
2018-05-17T10:42:36.338Z,58.88
2018-05-17T10:43:36.324Z,58.44
2018-05-17T10:44:36.367Z,59.11
2018-05-17T10:45:36.358Z,59.77
2018-05-17T10:46:36.267Z,58.72
2018-05-17T10:47:36.296Z,58.53
2018-05-17T10:48:36.261Z,58.44
2018-05-17T10:49:36.292Z,59.13
2018-05-17T10:50:36.262Z,58.56
2018-05-17T10:51:36.251Z,58.30
2018-05-17T10:52:36.254Z,56.48
2018-05-17T10:53:36.191Z,56.35
2018-05-17T10:54:36.286Z,57.41
2018-05-17T10:55:36.186Z,58.20
2018-05-17T10:56:36.166Z,56.38
2018-05-17T10:57:36.215Z,55.90
2018-05-17T10:58:36.150Z,54.72
2018-05-17T10:59:36.122Z,55.49
2018-05-17T11:00:36.133Z,55.18
2018-05-17T11:01:36.137Z,56.42
2018-05-17T11:02:36.182Z,56.45
2018-05-17T11:03:36.089Z,56.45
2018-05-17T11:04:36.042Z,55.87
2018-05-17T11:05:36.118Z,56.13
2018-05-17T11:06:36.074Z,56.52
2018-05-17T11:07:36.008Z,56.35
2018-05-17T11:08:35.987Z,56.81
2018-05-17T11:09:36.026Z,57.28
2018-05-17T11:10:36.087Z,57.67
2018-05-17T11:11:35.971Z,57.70
2018-05-17T11:12:35.955Z,57.12
2018-05-17T11:13:35.969Z,56.64
2018-05-17T11:14:35.920Z,56.54
2018-05-17T11:15:35.922Z,56.54
2018-05-17T11:16:35.931Z,57.79
2018-05-17T11:17:35.895Z,57.86
2018-05-17T11:18:35.885Z,57.95
2018-05-17T11:19:35.944Z,58.17
2018-05-17T11:20:35.827Z,56.45
2018-05-17T11:21:35.879Z,56.26
2018-05-17T11:22:35.821Z,54.27
2018-05-17T11:23:35.755Z,54.44
2018-05-17T11:24:35.753Z,55.87
2018-05-17T11:25:35.756Z,55.78
2018-05-17T11:26:35.740Z,56.45
2018-05-17T11:27:35.750Z,56.07
2018-05-17T11:28:35.713Z,56.45
2018-05-17T11:29:35.716Z,54.85
2018-05-17T11:30:35.669Z,54.46
2018-05-17T11:31:35.684Z,53.79
2018-05-17T11:32:35.668Z,53.50
2018-05-17T11:33:35.644Z,54.05
2018-05-17T11:34:35.707Z,53.28
2018-05-17T11:35:35.601Z,53.19
2018-05-17T11:36:35.613Z,53.09
2018-05-17T11:37:35.610Z,52.52
2018-05-17T11:38:35.600Z,52.33
2018-05-17T11:39:35.629Z,52.81
2018-05-17T11:40:35.699Z,52.93
2018-05-17T11:41:35.520Z,53.41
2018-05-17T11:42:35.529Z,53.22
2018-05-17T11:43:35.503Z,53.24
2018-05-17T11:44:35.531Z,53.60
2018-05-17T11:45:35.519Z,54.08
2018-05-17T11:46:35.500Z,53.70
2018-05-17T11:47:35.467Z,53.99
2018-05-17T11:48:35.485Z,53.89
2018-05-17T11:49:35.430Z,54.17
2018-05-17T11:50:35.574Z,54.85
2018-05-17T11:51:35.437Z,54.75
2018-05-17T11:52:35.355Z,54.46
2018-05-17T11:53:35.349Z,54.85
2018-05-17T11:54:35.359Z,54.75
2018-05-17T11:55:35.347Z,54.46
2018-05-17T11:56:35.351Z,54.27
2018-05-17T11:57:35.393Z,54.46
2018-05-17T11:58:35.309Z,54.37
2018-05-17T11:59:36.245Z,54.75
2018-05-17T12:00:35.260Z,54.56
2018-05-17T12:01:35.274Z,54.08
2018-05-17T12:02:35.296Z,54.58
2018-05-17T12:03:35.248Z,53.82
2018-05-17T12:04:35.232Z,53.31
2018-05-17T12:05:35.291Z,53.50
2018-05-17T12:06:35.191Z,53.50
2018-05-17T12:07:35.225Z,53.41
2018-05-17T12:08:35.145Z,52.93
2018-05-17T12:09:35.193Z,52.83
2018-05-17T12:10:35.168Z,52.55
2018-05-17T12:11:35.117Z,52.76
2018-05-17T12:12:35.387Z,51.23
2018-05-17T12:13:35.098Z,51.32
2018-05-17T12:14:35.104Z,51.30
2018-05-17T12:15:35.075Z,51.68
2018-05-17T12:16:35.065Z,52.36
2018-05-17T12:17:35.044Z,52.55
2018-05-17T12:18:35.094Z,52.55
2018-05-17T12:19:35.011Z,53.28
2018-05-17T12:20:35.023Z,53.48
2018-05-17T12:21:34.989Z,53.89
2018-05-17T12:22:34.961Z,53.79
2018-05-17T12:23:34.977Z,53.96
2018-05-17T12:24:35.021Z,53.70
2018-05-17T12:25:34.963Z,53.67
2018-05-17T12:26:34.922Z,53.79
2018-05-17T12:27:34.947Z,53.03
2018-05-17T12:28:34.923Z,53.89
2018-05-17T12:29:34.917Z,53.31
2018-05-17T12:30:34.870Z,53.34
2018-05-17T12:31:34.929Z,52.83
2018-05-17T12:32:34.881Z,53.41
2018-05-17T12:33:34.837Z,53.60
2018-05-17T12:34:34.858Z,54.66
2018-05-17T12:35:34.831Z,54.56
2018-05-17T12:36:34.817Z,54.56
2018-05-17T12:37:34.791Z,54.85
2018-05-17T12:38:34.785Z,54.75
2018-05-17T12:39:34.755Z,54.27
2018-05-17T12:40:34.752Z,55.42
2018-05-17T12:41:34.763Z,56.35
2018-05-17T12:42:34.705Z,56.19
2018-05-17T12:43:34.742Z,55.90
2018-05-17T12:44:34.729Z,55.71
2018-05-17T12:45:34.705Z,55.90
2018-05-17T12:46:34.701Z,56.29
2018-05-17T12:47:34.709Z,55.80
2018-05-17T12:48:34.653Z,55.90
2018-05-17T12:49:34.656Z,56.57
2018-05-17T12:50:34.635Z,56.19
2018-05-17T12:51:34.613Z,55.64
2018-05-17T12:52:34.603Z,55.42
2018-05-17T12:53:34.603Z,54.88